createdAt,value
2023-03-21T00:01:58.243Z,3.85
2023-03-21T00:04:28.457Z,4.15
2023-03-21T00:06:57.584Z,4.25
2023-03-21T00:09:24.303Z,4.55
2023-03-21T00:11:50.687Z,5.25
2023-03-21T00:14:18.768Z,4.35
2023-03-21T00:16:50.429Z,4.85
2023-03-21T00:19:17.719Z,4.53
2023-03-21T00:22:03.305Z,4.28
2023-03-21T00:24:32.133Z,3.92
2023-03-21T00:27:15.857Z,4.32
2023-03-21T00:29:44.815Z,5.03
2023-03-21T00:32:11.176Z,4.78
2023-03-21T00:34:48.538Z,3.97
2023-03-21T00:37:21.122Z,4.15
2023-03-21T00:39:49.102Z,4.82
2023-03-21T00:42:16.140Z,4.70
2023-03-21T00:44:42.935Z,4.53
2023-03-21T00:47:10.026Z,4.47
2023-03-21T00:49:38.442Z,4.55
2023-03-21T00:52:15.212Z,3.85
2023-03-21T00:54:42.282Z,3.85
2023-03-21T00:57:08.668Z,4.70
2023-03-21T00:59:35.024Z,4.50
2023-03-21T01:02:01.392Z,3.90
2023-03-21T01:04:28.282Z,4.47
2023-03-21T01:06:54.737Z,4.32
2023-03-21T01:09:22.693Z,4.63
2023-03-21T01:14:23.820Z,4.70
2023-03-21T01:16:53.859Z,4.55
2023-03-21T01:19:30.895Z,3.80
2023-03-21T01:22:04.679Z,3.88
2023-03-21T01:24:31.276Z,4.22
2023-03-21T01:26:58.668Z,3.97
2023-03-21T01:29:25.160Z,3.83
2023-03-21T01:31:51.543Z,4.60
2023-03-21T01:34:18.003Z,4.55
2023-03-21T01:36:44.463Z,3.45
2023-03-21T01:39:11.381Z,5.78
2023-03-21T01:41:44.153Z,3.47
2023-03-21T01:44:14.791Z,4.25
2023-03-21T01:47:00.437Z,4.50
2023-03-21T01:52:06.510Z,4.82
2023-03-21T01:54:39.030Z,4.82
2023-03-21T01:57:09.913Z,5.43
2023-03-21T01:59:37.694Z,5.25
2023-03-21T02:02:07.305Z,6.00
2023-03-21T02:04:34.801Z,6.68
2023-03-21T02:07:06.002Z,5.07
2023-03-21T02:09:33.646Z,5.03
2023-03-21T02:12:00.484Z,5.78
2023-03-21T02:14:29.512Z,5.28
2023-03-21T02:17:04.972Z,5.53
2023-03-21T02:19:50.983Z,6.30
2023-03-21T02:22:24.987Z,6.70
2023-03-21T02:25:22.201Z,6.80
2023-03-21T02:30:50.895Z,8.25
2023-03-21T02:33:37.010Z,7.80
2023-03-21T02:36:15.936Z,7.75
2023-03-21T02:38:52.570Z,8.70
2023-03-21T02:41:22.389Z,8.90
2023-03-21T02:43:50.719Z,8.52
2023-03-21T02:46:22.606Z,8.73
2023-03-21T02:48:52.778Z,8.02
2023-03-21T02:51:21.741Z,9.38
2023-03-21T02:53:54.990Z,8.77
2023-03-21T02:56:31.471Z,9.13
2023-03-21T02:58:58.385Z,8.77
2023-03-21T03:01:25.973Z,9.15
2023-03-21T03:03:52.622Z,9.70
2023-03-21T03:06:20.723Z,8.98
2023-03-21T03:09:01.515Z,9.63
2023-03-21T03:11:31.152Z,10.90
2023-03-21T03:14:32.236Z,9.93
2023-03-21T03:17:15.236Z,10.15
2023-03-21T03:19:51.454Z,9.98
2023-03-21T03:22:23.554Z,9.00
2023-03-21T03:24:58.557Z,9.35
2023-03-21T03:27:29.706Z,9.48
2023-03-21T03:29:57.496Z,9.40
2023-03-21T03:32:31.035Z,9.23
2023-03-21T03:34:58.425Z,9.07
2023-03-21T03:37:26.908Z,8.00
2023-03-21T03:39:59.985Z,9.18
2023-03-21T03:42:36.646Z,8.57
2023-03-21T03:45:04.084Z,9.00
2023-03-21T03:47:39.799Z,9.50
2023-03-21T03:50:09.034Z,7.70
2023-03-21T03:52:42.062Z,7.20
2023-03-21T03:55:16.319Z,7.45
2023-03-21T03:57:42.779Z,8.07
2023-03-21T04:00:13.277Z,6.95
2023-03-21T04:02:39.652Z,7.55
2023-03-21T04:05:06.425Z,7.03
2023-03-21T04:07:32.742Z,6.60
2023-03-21T04:09:59.220Z,6.55
2023-03-21T04:12:25.760Z,5.78
2023-03-21T04:14:53.333Z,6.07
2023-03-21T04:17:21.401Z,4.30
2023-03-21T04:19:47.797Z,3.45
2023-03-21T04:22:14.255Z,3.60
2023-03-21T04:24:42.396Z,2.60
2023-03-21T04:27:08.769Z,3.60
2023-03-21T04:29:35.084Z,2.92
2023-03-21T04:32:01.584Z,3.35
2023-03-21T04:34:28.264Z,4.10
2023-03-21T04:36:55.383Z,5.30
2023-03-21T04:39:21.990Z,5.33
2023-03-21T04:41:48.865Z,5.55
2023-03-21T04:44:16.453Z,5.30
2023-03-21T04:46:43.072Z,6.05
2023-03-21T04:49:09.748Z,5.82
2023-03-21T04:51:36.533Z,5.82
2023-03-21T04:54:03.050Z,5.68
2023-03-21T04:56:33.871Z,4.68
2023-03-21T04:59:01.314Z,4.40
2023-03-21T05:04:49.473Z,4.68
2023-03-21T05:07:15.781Z,4.40
2023-03-21T05:09:42.103Z,5.13
2023-03-21T05:12:08.435Z,4.10
2023-03-21T05:14:34.870Z,4.70
2023-03-21T05:17:05.192Z,5.72
2023-03-21T05:19:35.632Z,5.60
2023-03-21T05:22:04.541Z,5.65
2023-03-21T05:24:32.067Z,5.00
2023-03-21T05:27:02.126Z,5.20
2023-03-21T05:29:32.732Z,4.78
2023-03-21T05:31:59.829Z,5.88
2023-03-21T05:34:27.068Z,5.07
2023-03-21T05:36:53.607Z,5.50
2023-03-21T05:39:20.359Z,5.72
2023-03-21T05:41:46.745Z,5.45
2023-03-21T05:44:13.224Z,6.80
2023-03-21T05:46:39.611Z,5.95
2023-03-21T05:49:06.033Z,6.88
2023-03-21T05:51:32.361Z,5.85
2023-03-21T05:53:58.688Z,6.35
2023-03-21T05:56:25.016Z,6.50
2023-03-21T05:58:51.343Z,7.10
2023-03-21T06:01:17.737Z,7.05
2023-03-21T06:03:44.165Z,7.30
2023-03-21T06:06:10.607Z,7.53
2023-03-21T06:08:36.929Z,6.72
2023-03-21T06:11:03.429Z,6.78
2023-03-21T06:13:31.311Z,5.97
2023-03-21T06:18:23.959Z,5.78
2023-03-21T06:20:50.685Z,5.88
2023-03-21T06:23:17.911Z,6.03
2023-03-21T06:25:44.256Z,5.13
2023-03-21T06:28:10.568Z,5.07
2023-03-21T06:30:36.915Z,5.70
2023-03-21T06:33:03.353Z,4.68
2023-03-21T06:35:29.720Z,5.32
2023-03-21T06:37:58.372Z,4.45
2023-03-21T06:40:24.704Z,5.25
2023-03-21T06:42:51.419Z,4.93
2023-03-21T06:45:17.835Z,4.80
2023-03-21T06:47:44.219Z,5.13
2023-03-21T06:50:10.911Z,5.22
2023-03-21T06:52:37.254Z,5.15
2023-03-21T06:55:04.012Z,5.60
2023-03-21T06:57:30.345Z,5.05
2023-03-21T06:59:56.799Z,5.32
2023-03-21T07:02:23.244Z,5.38
2023-03-21T07:04:49.665Z,5.88
2023-03-21T07:07:16.640Z,5.35
2023-03-21T07:09:43.236Z,6.18
2023-03-21T07:12:10.213Z,5.13
2023-03-21T07:14:36.582Z,5.40
2023-03-21T07:17:02.992Z,5.80
2023-03-21T07:19:29.357Z,6.63
2023-03-21T07:21:55.812Z,5.57
2023-03-21T07:24:22.183Z,5.55
2023-03-21T07:26:48.560Z,5.45
2023-03-21T07:29:15.370Z,4.35
2023-03-21T07:31:41.855Z,4.88
2023-03-21T07:34:08.259Z,3.42
2023-03-21T07:36:34.653Z,3.88
2023-03-21T07:39:01.093Z,3.53
2023-03-21T07:41:27.412Z,3.70
2023-03-21T07:43:53.787Z,3.17
2023-03-21T07:46:20.279Z,3.17
2023-03-21T07:48:46.708Z,2.80
2023-03-21T07:51:13.098Z,2.92
2023-03-21T07:53:41.888Z,2.40
2023-03-21T07:56:08.396Z,2.42
2023-03-21T07:58:34.758Z,2.67
2023-03-21T08:01:02.246Z,2.47
2023-03-21T08:03:29.798Z,2.42
2023-03-21T08:05:56.205Z,2.25
2023-03-21T08:08:22.584Z,2.33
2023-03-21T08:24:18.763Z,1.35
2023-03-21T08:26:46.057Z,1.50
2023-03-21T08:29:12.869Z,1.42
2023-03-21T08:31:42.461Z,1.20
2023-03-21T08:34:08.796Z,1.20
2023-03-21T08:36:38.224Z,0.90
2023-03-21T08:39:07.522Z,1.10
2023-03-21T08:41:34.919Z,1.65
2023-03-21T08:44:01.678Z,1.65
2023-03-21T08:46:28.113Z,1.50
2023-03-21T08:48:54.772Z,1.45
2023-03-21T08:51:21.234Z,1.50
2023-03-21T08:53:49.277Z,1.00
2023-03-21T08:56:15.712Z,1.55
2023-03-21T08:58:42.078Z,1.33
2023-03-21T09:01:11.270Z,1.02
2023-03-21T09:03:38.817Z,1.45
2023-03-21T09:06:05.284Z,0.70
2023-03-21T09:08:31.685Z,1.77
2023-03-21T09:10:58.011Z,1.20
2023-03-21T09:13:24.532Z,0.80
2023-03-21T09:15:50.948Z,0.73
2023-03-21T09:18:18.100Z,0.65
2023-03-21T09:20:45.752Z,1.02
2023-03-21T09:25:40.795Z,0.90
2023-03-21T09:28:07.340Z,0.75
2023-03-21T09:30:34.991Z,1.00
2023-03-21T09:33:03.579Z,1.20
2023-03-21T09:35:30.141Z,1.95
2023-03-21T09:37:59.482Z,0.95
2023-03-21T09:40:45.739Z,0.90
2023-03-21T09:43:21.902Z,0.98
2023-03-21T09:46:07.334Z,1.10
2023-03-21T09:48:39.646Z,0.98
2023-03-21T09:51:12.862Z,0.95
2023-03-21T09:53:41.069Z,4.53
2023-03-21T09:56:12.491Z,0.93
2023-03-21T09:58:46.265Z,0.98
2023-03-21T10:01:27.124Z,6.90
2023-03-21T10:03:54.796Z,0.60
2023-03-21T10:06:30.371Z,0.63
2023-03-21T10:09:00.460Z,0.60
2023-03-21T10:11:28.961Z,1.02
2023-03-21T10:13:55.344Z,0.32
2023-03-21T10:16:24.585Z,0.68
2023-03-21T10:18:51.275Z,0.40
2023-03-21T10:21:51.760Z,0.50
2023-03-21T10:24:18.904Z,0.20
2023-03-21T10:26:46.715Z,0.73
2023-03-21T10:29:14.072Z,0.38
2023-03-21T10:34:18.796Z,1.40
2023-03-21T10:36:45.784Z,0.65
2023-03-21T10:39:24.707Z,0.63
2023-03-21T10:41:51.134Z,0.50
2023-03-21T10:44:17.933Z,0.70
2023-03-21T10:46:58.600Z,0.32
2023-03-21T10:49:26.705Z,0.75
2023-03-21T10:51:55.561Z,0.50
2023-03-21T10:54:24.061Z,0.80
2023-03-21T10:57:11.875Z,0.75
2023-03-21T10:59:38.256Z,0.80
2023-03-21T11:02:05.560Z,0.65
2023-03-21T11:04:32.404Z,1.05
2023-03-21T11:07:01.283Z,1.80
2023-03-21T11:09:43.816Z,1.00
2023-03-21T11:12:11.741Z,0.75
2023-03-21T11:14:39.370Z,1.20
2023-03-21T11:17:35.343Z,0.65
2023-03-21T11:20:05.497Z,2.83
2023-03-21T11:22:39.959Z,0.60
2023-03-21T13:08:24.041Z,0.60
2023-03-21T13:10:50.509Z,1.23
2023-03-21T13:13:19.927Z,0.95
2023-03-21T13:15:50.584Z,0.75
2023-03-21T13:18:16.921Z,0.80
2023-03-21T13:20:49.262Z,0.70
2023-03-21T13:23:18.466Z,1.00
2023-03-21T13:25:46.826Z,0.75
2023-03-21T13:28:26.196Z,0.60
2023-03-21T13:30:52.786Z,1.00
2023-03-21T13:33:33.069Z,0.88
2023-03-21T13:36:05.646Z,0.93
2023-03-21T13:38:32.948Z,1.10
2023-03-21T13:41:08.553Z,0.55
2023-03-21T13:43:41.291Z,1.02
2023-03-21T13:46:25.909Z,0.82
2023-03-21T13:48:58.452Z,1.10
2023-03-21T13:51:28.795Z,0.80
2023-03-21T13:54:01.183Z,1.10
2023-03-21T15:58:52.671Z,1.00
2023-03-21T16:36:48.873Z,1.70
2023-03-21T16:39:17.128Z,1.60
2023-03-21T16:41:43.526Z,1.98
2023-03-21T16:44:10.023Z,1.50
2023-03-21T16:46:36.554Z,1.45
2023-03-21T16:49:02.883Z,1.50
2023-03-21T16:51:33.675Z,1.85
2023-03-21T16:54:00.336Z,2.10
2023-03-21T16:56:29.118Z,1.80
2023-03-21T16:58:56.483Z,1.70
2023-03-21T17:01:27.570Z,1.75
2023-03-21T17:03:54.162Z,1.75
2023-03-21T17:06:22.240Z,2.28
2023-03-21T17:08:48.601Z,1.83
2023-03-21T17:11:16.505Z,1.83
2023-03-21T17:13:52.707Z,1.63
2023-03-21T17:16:25.463Z,2.33
2023-03-21T17:18:53.052Z,1.55
2023-03-21T17:21:23.797Z,1.63
2023-03-21T17:23:51.767Z,1.90
2023-03-21T17:26:25.920Z,1.95
2023-03-21T17:28:54.856Z,1.98
2023-03-21T17:31:22.718Z,2.40
2023-03-21T17:33:49.112Z,2.10
2023-03-21T17:36:16.879Z,2.33
2023-03-21T17:41:11.396Z,2.58
2023-03-21T17:43:37.702Z,2.35
2023-03-21T17:46:04.125Z,2.72
2023-03-21T17:48:30.494Z,3.05
2023-03-21T17:50:57.006Z,2.78
2023-03-21T17:53:23.460Z,2.40
2023-03-21T17:55:49.786Z,2.80
2023-03-21T17:58:17.830Z,2.90
2023-03-21T18:00:46.389Z,2.00
2023-03-21T18:03:13.421Z,2.47
2023-03-21T18:05:40.025Z,2.90
2023-03-21T18:08:10.897Z,3.55
2023-03-21T18:10:39.007Z,2.72
2023-03-21T18:13:05.640Z,2.35
2023-03-21T18:15:32.120Z,2.63
2023-03-21T18:17:58.936Z,2.75
2023-03-21T18:20:44.595Z,3.58
2023-03-21T18:23:14.068Z,3.25
2023-03-21T18:25:41.736Z,3.58
2023-03-21T18:28:11.809Z,3.88
2023-03-21T18:30:56.830Z,2.72
2023-03-21T18:33:27.268Z,2.58
2023-03-21T18:35:58.711Z,2.45
2023-03-21T18:38:26.387Z,2.85
2023-03-21T18:40:52.748Z,3.40
2023-03-21T18:46:05.849Z,2.85
2023-03-21T18:48:34.119Z,3.03
2023-03-21T18:51:00.933Z,3.60
2023-03-21T18:53:27.836Z,3.40
2023-03-21T18:55:54.333Z,2.60
2023-03-21T18:58:21.282Z,2.55
2023-03-21T19:00:49.122Z,3.03
2023-03-21T19:03:26.888Z,2.85
2023-03-21T19:05:59.802Z,2.40
2023-03-21T19:08:26.455Z,2.80
2023-03-21T19:10:53.227Z,2.70
2023-03-21T19:13:19.616Z,2.60
2023-03-21T19:15:49.405Z,2.50
2023-03-21T19:18:37.789Z,2.75
2023-03-21T19:21:03.509Z,2.78
2023-03-21T19:23:40.937Z,2.20
2023-03-21T19:26:16.315Z,3.10
2023-03-21T19:28:42.639Z,2.92
2023-03-21T19:31:08.964Z,2.78
2023-03-21T19:33:35.511Z,2.80
2023-03-21T19:36:15.428Z,2.88
2023-03-21T19:38:44.762Z,3.95
2023-03-21T19:41:11.267Z,3.13
2023-03-21T19:43:40.009Z,2.80
2023-03-21T19:46:08.276Z,3.08
2023-03-21T19:48:34.766Z,3.50
2023-03-21T19:51:26.692Z,2.78
2023-03-21T19:56:21.804Z,3.08
2023-03-21T19:58:50.141Z,3.17
2023-03-21T20:01:16.520Z,4.57
2023-03-21T20:03:44.152Z,3.28
2023-03-21T20:06:11.525Z,4.15
2023-03-21T20:09:05.708Z,3.20
2023-03-21T20:11:24.290Z,3.38
2023-03-21T20:13:50.713Z,3.35
2023-03-21T20:16:18.273Z,3.05
2023-03-21T20:18:45.317Z,3.60
2023-03-21T20:21:17.635Z,3.33
2023-03-21T20:23:49.177Z,3.40
2023-03-21T20:26:16.842Z,3.92
2023-03-21T20:28:55.937Z,3.03
2023-03-21T20:31:26.096Z,3.20
2023-03-21T20:33:52.502Z,3.30
2023-03-21T20:36:38.066Z,4.15
2023-03-21T20:39:04.825Z,3.88
2023-03-21T20:41:31.136Z,3.28
2023-03-21T20:46:47.657Z,4.28
2023-03-21T20:49:15.264Z,3.70
2023-03-21T20:54:28.633Z,4.35
2023-03-21T20:56:55.219Z,3.55
2023-03-21T20:59:27.377Z,4.30
2023-03-21T21:01:57.640Z,4.07
2023-03-21T21:04:42.837Z,3.70
2023-03-21T21:07:17.233Z,3.88
2023-03-21T21:09:44.676Z,3.30
2023-03-21T21:12:11.560Z,3.22
2023-03-21T21:14:38.885Z,3.85
2023-03-21T21:17:23.785Z,3.63
2023-03-21T21:19:52.554Z,4.22
2023-03-21T21:22:18.980Z,4.15
2023-03-21T21:24:45.428Z,4.60
2023-03-21T21:27:12.002Z,5.00
2023-03-21T21:29:38.417Z,4.68
2023-03-21T21:32:05.319Z,4.07
2023-03-21T21:34:32.121Z,4.27
2023-03-21T21:36:58.495Z,5.43
2023-03-21T21:39:26.489Z,5.80
2023-03-21T21:41:53.122Z,4.65
2023-03-21T21:44:19.847Z,5.18
2023-03-21T21:46:46.272Z,4.88
2023-03-21T21:49:12.669Z,5.60
2023-03-21T21:51:41.105Z,4.72
2023-03-21T21:54:07.478Z,6.13
2023-03-21T21:56:33.960Z,5.90
2023-03-21T21:59:03.872Z,5.37
2023-03-21T22:01:30.612Z,4.63
2023-03-21T22:03:57.700Z,4.65
2023-03-21T22:06:24.119Z,4.63
2023-03-21T22:08:51.890Z,4.80
2023-03-21T22:11:18.766Z,4.20
2023-03-21T22:13:45.318Z,4.47
2023-03-21T22:16:11.845Z,4.47
2023-03-21T22:18:38.625Z,5.72
2023-03-21T22:21:05.869Z,4.78
2023-03-21T22:23:32.467Z,5.28
2023-03-21T22:25:58.807Z,4.20
2023-03-21T22:28:28.222Z,4.40
2023-03-21T22:30:55.206Z,4.45
2023-03-21T22:33:22.233Z,3.90
2023-03-21T22:35:52.144Z,4.47
2023-03-21T22:38:24.097Z,4.68
2023-03-21T22:41:08.480Z,4.63
2023-03-21T22:43:35.268Z,4.15
2023-03-21T22:46:05.669Z,5.18
2023-03-21T22:48:32.542Z,5.03
2023-03-21T22:50:59.461Z,4.63
2023-03-21T22:53:25.907Z,4.72
2023-03-21T22:55:52.329Z,5.22
2023-03-21T22:58:18.775Z,4.80
2023-03-21T23:00:45.472Z,4.65
2023-03-21T23:03:12.987Z,4.18
2023-03-21T23:05:42.567Z,4.20
2023-03-21T23:08:08.875Z,4.10
2023-03-21T23:10:38.075Z,4.20
2023-03-21T23:13:04.881Z,4.50
2023-03-21T23:15:31.204Z,4.40
2023-03-21T23:17:57.513Z,4.60
2023-03-21T23:20:23.844Z,4.63
2023-03-21T23:22:50.260Z,3.88
2023-03-21T23:25:16.939Z,4.25
2023-03-21T23:27:43.297Z,4.15
2023-03-21T23:30:09.719Z,4.43
2023-03-21T23:32:36.246Z,4.90
2023-03-21T23:35:02.656Z,4.95
2023-03-21T23:37:30.068Z,4.05
2023-03-21T23:39:56.545Z,4.20
2023-03-21T23:42:23.249Z,5.03
2023-03-21T23:44:49.641Z,5.18
2023-03-21T23:47:16.077Z,5.57
2023-03-21T23:49:45.236Z,5.85
2023-03-21T23:52:11.692Z,5.15
2023-03-21T23:54:38.011Z,4.25
2023-03-21T23:57:04.411Z,4.88
2023-03-21T23:59:30.735Z,5.22
